createdAt,value
2023-09-12T00:02:21.091Z,18.2
2023-09-12T00:04:47.191Z,18.2
2023-09-12T00:07:13.288Z,18.1
2023-09-12T00:09:38.409Z,18.1
2023-09-12T00:12:04.483Z,18.1
2023-09-12T00:14:30.572Z,18.1
2023-09-12T00:16:56.670Z,18
2023-09-12T00:19:22.887Z,18
2023-09-12T00:21:48.863Z,18
2023-09-12T00:24:14.960Z,18
2023-09-12T00:26:41.058Z,18
2023-09-12T00:29:07.153Z,17.9
2023-09-12T00:31:33.245Z,17.9
2023-09-12T00:33:59.349Z,17.9
2023-09-12T00:36:25.436Z,17.9
2023-09-12T00:38:51.521Z,17.9
2023-09-12T00:41:16.653Z,17.9
2023-09-12T00:46:08.827Z,17.8
2023-09-12T00:48:34.923Z,17.8
2023-09-12T00:51:01.026Z,17.8
2023-09-12T00:53:27.156Z,17.7
2023-09-12T00:55:53.204Z,17.7
2023-09-12T00:58:18.317Z,17.7
2023-09-12T01:00:44.416Z,17.7
2023-09-12T01:03:10.512Z,17.7
2023-09-12T01:05:36.599Z,17.6
2023-09-12T01:08:02.737Z,17.6
2023-09-12T01:10:28.796Z,17.6
2023-09-12T01:12:54.873Z,17.6
2023-09-12T01:15:20.972Z,17.6
2023-09-12T01:17:47.066Z,17.5
2023-09-12T01:20:13.176Z,17.5
2023-09-12T01:22:39.260Z,17.5
2023-09-12T01:25:05.355Z,17.5
2023-09-12T01:27:31.454Z,17.5
2023-09-12T01:29:56.550Z,17.4
2023-09-12T01:32:22.642Z,17.4
2023-09-12T01:34:48.732Z,17.4
2023-09-12T01:37:14.852Z,17.4
2023-09-12T01:39:40.941Z,17.3
2023-09-12T01:42:07.052Z,17.3
2023-09-12T01:44:33.313Z,17.3
2023-09-12T01:46:59.196Z,17.2
2023-09-12T01:49:25.302Z,17.2
2023-09-12T01:51:51.385Z,17.2
2023-09-12T01:54:17.493Z,17.2
2023-09-12T01:56:43.592Z,17.2
2023-09-12T01:59:09.690Z,17.1
2023-09-12T02:01:34.779Z,17.1
2023-09-12T02:04:00.884Z,17.1
2023-09-12T02:06:27.004Z,17.1
2023-09-12T02:08:53.072Z,17.1
2023-09-12T02:11:19.177Z,17.1
2023-09-12T02:13:45.260Z,17
2023-09-12T02:16:11.432Z,17
2023-09-12T02:18:37.440Z,17
2023-09-12T02:21:03.536Z,17
2023-09-12T02:23:29.644Z,17
2023-09-12T02:25:55.747Z,17
2023-09-12T02:28:21.848Z,17
2023-09-12T02:30:47.980Z,17
2023-09-12T02:33:13.034Z,16.9
2023-09-12T02:35:39.129Z,16.9
2023-09-12T02:38:05.303Z,16.9
2023-09-12T02:40:31.312Z,16.9
2023-09-12T02:42:57.415Z,16.9
2023-09-12T02:45:23.517Z,16.9
2023-09-12T02:47:49.711Z,16.9
2023-09-12T02:50:15.723Z,16.9
2023-09-12T02:52:41.786Z,16.8
2023-09-12T02:55:07.902Z,16.8
2023-09-12T02:57:34.003Z,16.8
2023-09-12T03:00:00.092Z,16.8
2023-09-12T03:02:26.187Z,16.8
2023-09-12T03:04:51.303Z,16.8
2023-09-12T03:07:17.379Z,16.7
2023-09-12T03:09:43.492Z,16.7
2023-09-12T03:12:09.601Z,16.7
2023-09-12T03:17:01.775Z,16.7
2023-09-12T03:19:27.880Z,16.7
2023-09-12T03:21:53.965Z,16.7
2023-09-12T03:24:20.065Z,16.6
2023-09-12T03:26:46.144Z,16.6
2023-09-12T03:29:12.248Z,16.6
2023-09-12T03:31:38.342Z,16.6
2023-09-12T03:34:04.435Z,16.5
2023-09-12T03:36:29.542Z,16.5
2023-09-12T03:38:55.641Z,16.5
2023-09-12T03:41:21.741Z,16.5
2023-09-12T03:43:47.831Z,16.5
2023-09-12T03:46:13.921Z,16.5
2023-09-12T03:48:40.016Z,16.4
2023-09-12T03:51:06.114Z,16.4
2023-09-12T03:53:32.267Z,16.4
2023-09-12T03:55:58.309Z,16.4
2023-09-12T03:58:24.396Z,16.4
2023-09-12T04:00:50.508Z,16.4
2023-09-12T04:03:16.609Z,16.4
2023-09-12T04:05:42.679Z,16.4
2023-09-12T04:08:07.827Z,16.3
2023-09-12T04:10:33.894Z,16.3
2023-09-12T04:12:59.983Z,16.3
2023-09-12T04:15:26.180Z,16.3
2023-09-12T04:17:52.192Z,16.3
2023-09-12T04:20:18.290Z,16.3
2023-09-12T04:22:44.367Z,16.3
2023-09-12T04:25:10.502Z,16.3
2023-09-12T04:27:36.565Z,16.2
2023-09-12T04:30:02.653Z,16.2
2023-09-12T04:32:28.750Z,16.2
2023-09-12T04:34:54.844Z,16.2
2023-09-12T04:37:20.939Z,16.2
2023-09-12T04:39:46.069Z,16.2
2023-09-12T04:42:12.176Z,16.2
2023-09-12T04:44:38.251Z,16.2
2023-09-12T04:47:04.349Z,16.1
2023-09-12T04:49:30.446Z,16.1
2023-09-12T04:51:56.526Z,16.2
2023-09-12T04:54:22.637Z,16.1
2023-09-12T04:56:48.735Z,16.1
2023-09-12T04:59:14.829Z,16.1
2023-09-12T05:01:40.917Z,16.1
2023-09-12T05:04:07.021Z,16.1
2023-09-12T05:06:33.120Z,16.2
2023-09-12T05:08:59.210Z,16.2
2023-09-12T05:11:24.309Z,16.2
2023-09-12T05:13:50.405Z,16.2
2023-09-12T05:16:16.498Z,16.2
2023-09-12T05:18:42.596Z,16.2
2023-09-12T05:21:08.689Z,16.2
2023-09-12T05:23:34.800Z,16.3
2023-09-12T05:26:00.889Z,16.3
2023-09-12T05:28:26.992Z,16.4
2023-09-12T05:30:53.123Z,16.4
2023-09-12T05:33:19.174Z,16.4
2023-09-12T05:35:45.293Z,16.5
2023-09-12T05:38:11.369Z,16.5
2023-09-12T05:40:37.487Z,16.6
2023-09-12T05:43:02.583Z,16.6
2023-09-12T05:45:28.682Z,16.6
2023-09-12T05:47:54.774Z,16.7
2023-09-12T05:50:20.862Z,16.7
2023-09-12T05:52:46.951Z,16.8
2023-09-12T05:55:13.048Z,16.8
2023-09-12T05:57:39.135Z,16.8
2023-09-12T06:00:05.242Z,16.9
2023-09-12T06:02:31.341Z,17
2023-09-12T06:04:57.429Z,17
2023-09-12T06:07:23.568Z,17.1
2023-09-12T06:09:49.620Z,17.1
2023-09-12T06:12:15.701Z,17.2
2023-09-12T06:14:40.826Z,17.2
2023-09-12T06:17:06.920Z,17.3
2023-09-12T06:19:33.007Z,17.4
2023-09-12T06:21:59.172Z,17.5
2023-09-12T06:24:25.268Z,17.5
2023-09-12T06:26:51.459Z,17.6
2023-09-12T06:29:17.395Z,17.7
2023-09-12T06:31:43.580Z,17.7
2023-09-12T06:34:09.579Z,17.8
2023-09-12T06:36:35.672Z,17.9
2023-09-12T06:39:01.779Z,17.9
2023-09-12T06:41:27.864Z,18
2023-09-12T06:43:53.988Z,18.1
2023-09-12T06:46:19.114Z,18.2
2023-09-12T06:48:45.256Z,18.3
2023-09-12T06:51:11.360Z,18.4
2023-09-12T06:53:37.451Z,18.6
2023-09-12T06:56:03.485Z,18.7
2023-09-12T06:58:29.532Z,18.8
2023-09-12T07:00:55.775Z,19
2023-09-12T07:03:21.836Z,19.1
2023-09-12T07:05:47.986Z,19.2
2023-09-12T07:08:13.969Z,19.3
2023-09-12T07:10:40.068Z,19.3
2023-09-12T07:13:06.091Z,19.4
2023-09-12T07:15:32.197Z,19.4
2023-09-12T07:17:57.441Z,19.5
2023-09-12T07:20:23.540Z,19.5
2023-09-12T07:25:15.609Z,19.6
2023-09-12T07:27:41.677Z,19.7
2023-09-12T07:30:07.965Z,19.7
2023-09-12T07:32:33.876Z,19.8
2023-09-12T07:34:59.987Z,19.9
2023-09-12T07:37:26.189Z,20
2023-09-12T07:39:52.151Z,20.1
2023-09-12T07:42:18.270Z,20.1
2023-09-12T07:44:44.403Z,20.2
2023-09-12T07:47:10.446Z,20.2
2023-09-12T07:49:35.629Z,20.3
2023-09-12T07:52:01.654Z,20.4
2023-09-12T07:54:27.734Z,20.4
2023-09-12T07:56:53.812Z,20.5
2023-09-12T07:59:19.933Z,20.6
2023-09-12T08:01:46.057Z,20.6
2023-09-12T08:04:12.233Z,20.7
2023-09-12T08:06:38.195Z,20.8
2023-09-12T08:13:56.488Z,21.1
2023-09-12T08:16:21.600Z,21.3
2023-09-12T08:18:46.936Z,21.4
2023-09-12T08:21:12.975Z,21.6
2023-09-12T08:23:38.962Z,21.7
2023-09-12T08:26:05.121Z,21.9
2023-09-12T08:28:31.138Z,22
2023-09-12T08:30:57.307Z,22.2
2023-09-12T08:33:23.325Z,22.3
2023-09-12T08:40:41.594Z,22.6
2023-09-12T08:43:07.771Z,22.7
2023-09-12T08:45:32.828Z,22.8
2023-09-12T08:47:58.114Z,22.9
2023-09-12T08:50:24.000Z,23
2023-09-12T08:52:50.091Z,23.1
2023-09-12T08:55:16.228Z,23.3
2023-09-12T08:57:42.277Z,23.4
2023-09-12T09:00:08.732Z,23.5
2023-09-12T09:02:34.780Z,23.6
2023-09-12T09:05:00.865Z,23.8
2023-09-12T09:07:25.914Z,23.9
2023-09-12T09:09:51.154Z,24
2023-09-12T09:12:16.183Z,24
2023-09-12T09:14:42.144Z,24
2023-09-12T09:17:08.230Z,24
2023-09-12T09:19:34.316Z,24
2023-09-12T09:22:00.420Z,24
2023-09-12T09:24:26.474Z,24
2023-09-12T09:26:52.513Z,24.1
2023-09-12T09:29:18.569Z,24.1
2023-09-12T09:31:44.661Z,24.1
2023-09-12T09:34:09.826Z,24.1
2023-09-12T09:36:35.005Z,24.1
2023-09-12T09:39:01.002Z,24.2
2023-09-12T09:41:27.090Z,24.2
2023-09-12T09:43:53.329Z,24.2
2023-09-12T09:46:19.378Z,24.3
2023-09-12T09:48:45.451Z,24.3
2023-09-12T09:51:11.464Z,24.4
2023-09-12T09:53:37.562Z,24.4
2023-09-12T09:56:03.690Z,24.4
2023-09-12T09:58:29.747Z,24.5
2023-09-12T10:00:55.856Z,24.5
2023-09-12T10:03:21.938Z,24.6
2023-09-12T10:05:48.031Z,24.6
2023-09-12T10:08:13.237Z,24.7
2023-09-12T10:10:39.231Z,24.7
2023-09-12T10:13:05.454Z,24.8
2023-09-12T10:15:31.490Z,24.8
2023-09-12T10:17:57.568Z,24.9
2023-09-12T10:20:23.630Z,25
2023-09-12T10:22:49.951Z,25.1
2023-09-12T10:25:16.154Z,25.2
2023-09-12T10:27:42.132Z,25.3
2023-09-12T10:30:08.405Z,25.3
2023-09-12T10:32:34.402Z,25.4
2023-09-12T10:35:00.394Z,25.5
2023-09-12T10:37:26.677Z,25.6
2023-09-12T10:39:51.687Z,25.7
2023-09-12T10:42:17.545Z,25.7
2023-09-12T10:44:43.858Z,25.8
2023-09-12T10:47:09.793Z,25.9
2023-09-12T10:49:35.930Z,26
2023-09-12T10:52:02.129Z,26.1
2023-09-12T10:54:28.168Z,26.2
2023-09-12T10:56:54.036Z,26.3
2023-09-12T10:59:20.442Z,26.5
2023-09-12T11:01:46.604Z,26.6
2023-09-12T11:04:12.614Z,26.8
2023-09-12T11:06:38.699Z,26.9
2023-09-12T11:09:04.514Z,27.1
2023-09-12T11:11:29.919Z,27.2
2023-09-12T11:13:55.975Z,27.3
2023-09-12T11:16:22.013Z,27.4
2023-09-12T11:18:48.167Z,27.5
2023-09-12T11:21:14.439Z,27.6
2023-09-12T11:23:40.200Z,27.7
2023-09-12T11:26:06.186Z,27.8
2023-09-12T11:28:32.319Z,27.9
2023-09-12T11:30:58.403Z,28.1
2023-09-12T11:33:24.728Z,28.2
2023-09-12T11:35:50.637Z,28.3
2023-09-12T11:38:17.033Z,28.3
2023-09-12T11:40:43.057Z,28.4
2023-09-12T11:43:08.021Z,28.5
2023-09-12T11:45:33.967Z,28.6
2023-09-12T11:48:00.067Z,28.6
2023-09-12T11:50:26.170Z,28.7
2023-09-12T11:52:52.420Z,28.8
2023-09-12T11:55:18.352Z,28.8
2023-09-12T11:57:44.548Z,28.9
2023-09-12T12:00:10.653Z,29
2023-09-12T12:02:36.717Z,29
2023-09-12T12:05:02.764Z,29
2023-09-12T12:07:28.920Z,29
2023-09-12T12:09:54.929Z,29.1
2023-09-12T12:12:21.057Z,29.1
2023-09-12T12:14:46.174Z,29.1
2023-09-12T12:17:12.229Z,29.2
2023-09-12T12:19:38.330Z,29.2
2023-09-12T12:22:04.471Z,29.3
2023-09-12T12:24:30.559Z,29.4
2023-09-12T12:26:56.600Z,29.5
2023-09-12T12:29:22.843Z,29.6
2023-09-12T12:31:48.847Z,29.6
2023-09-12T12:34:14.895Z,29.7
2023-09-12T12:36:41.345Z,29.7
2023-09-12T12:39:07.347Z,29.7
2023-09-12T12:41:33.547Z,29.8
2023-09-12T12:43:59.432Z,29.8
2023-09-12T12:46:24.613Z,29.8
2023-09-12T12:48:50.515Z,29.8
2023-09-12T12:51:16.777Z,29.9
2023-09-12T12:53:43.132Z,29.9
2023-09-12T12:56:08.782Z,29.9
2023-09-12T12:58:35.083Z,30
2023-09-12T13:01:01.068Z,30
2023-09-12T13:03:27.062Z,30
2023-09-12T13:05:53.352Z,30.1
2023-09-12T13:08:19.264Z,30.1
2023-09-12T13:10:45.350Z,30.2
2023-09-12T13:13:11.516Z,30.3
2023-09-12T13:15:37.634Z,30.3
2023-09-12T13:18:03.291Z,30.4
2023-09-12T13:20:28.791Z,30.4
2023-09-12T13:22:54.865Z,30.5
2023-09-12T13:25:20.935Z,30.5
2023-09-12T13:27:47.028Z,30.6
2023-09-12T13:30:13.359Z,30.7
2023-09-12T13:32:39.330Z,30.7
2023-09-12T13:35:05.458Z,30.8
2023-09-12T13:37:31.638Z,30.9
2023-09-12T13:39:57.584Z,31
2023-09-12T13:42:23.773Z,31
2023-09-12T13:44:49.698Z,31.1
2023-09-12T13:47:15.957Z,31.2
2023-09-12T13:49:40.931Z,31.3
2023-09-12T13:52:07.023Z,31.3
2023-09-12T13:54:33.151Z,31.3
2023-09-12T13:59:25.589Z,31.4
2023-09-12T14:01:51.632Z,31.5
2023-09-12T14:04:17.627Z,31.6
2023-09-12T14:06:43.830Z,32
2023-09-12T14:09:09.784Z,32.6
2023-09-12T14:11:35.991Z,33.3
2023-09-12T14:14:02.222Z,34.1
2023-09-12T14:16:28.012Z,34.9
2023-09-12T14:18:54.046Z,35.5
2023-09-12T14:21:19.251Z,36.1
2023-09-12T14:23:45.419Z,36.7
2023-09-12T14:26:11.560Z,37.3
2023-09-12T14:28:37.770Z,37.7
2023-09-12T14:31:03.538Z,37.7
2023-09-12T14:33:29.649Z,37.5
2023-09-12T14:35:55.715Z,37.2
2023-09-12T14:38:22.110Z,36.7
2023-09-12T14:40:48.280Z,36.3
2023-09-12T14:43:14.362Z,35.8
2023-09-12T14:45:40.389Z,35.4
2023-09-12T14:48:06.352Z,34.9
2023-09-12T14:50:32.643Z,34.5
2023-09-12T14:52:57.476Z,34.1
2023-09-12T14:55:23.573Z,33.7
2023-09-12T14:57:49.832Z,33.4
2023-09-12T15:00:16.031Z,33.2
2023-09-12T15:02:41.955Z,32.9
2023-09-12T15:05:08.134Z,32.6
2023-09-12T15:07:34.204Z,32.4
2023-09-12T15:10:00.472Z,32.2
2023-09-12T15:12:26.164Z,31.9
2023-09-12T15:14:52.583Z,31.7
2023-09-12T15:17:18.566Z,31.5
2023-09-12T15:19:44.508Z,31.3
2023-09-12T15:22:10.722Z,31.1
2023-09-12T15:24:35.937Z,30.9
2023-09-12T15:27:02.010Z,30.8
2023-09-12T15:29:28.046Z,30.6
2023-09-12T15:31:54.257Z,30.5
2023-09-12T15:34:20.050Z,30.3
2023-09-12T15:36:46.147Z,30.2
2023-09-12T15:39:12.255Z,30
2023-09-12T15:41:38.341Z,29.9
2023-09-12T15:44:04.439Z,29.7
2023-09-12T15:46:30.846Z,29.6
2023-09-12T15:48:56.623Z,29.5
2023-09-12T15:51:22.728Z,29.4
2023-09-12T15:53:48.942Z,29.2
2023-09-12T15:56:13.922Z,29.1
2023-09-12T15:58:40.001Z,28.9
2023-09-12T16:01:06.124Z,28.8
2023-09-12T16:03:32.251Z,28.6
2023-09-12T16:05:58.307Z,28.4
2023-09-12T16:08:24.389Z,28.3
2023-09-12T16:10:50.508Z,28.2
2023-09-12T16:13:16.591Z,28
2023-09-12T16:15:42.686Z,27.9
2023-09-12T16:18:08.791Z,27.8
2023-09-12T16:20:34.858Z,27.7
2023-09-12T16:23:00.986Z,27.5
2023-09-12T16:25:27.069Z,27.4
2023-09-12T16:27:52.171Z,27.3
2023-09-12T16:30:18.409Z,27.2
2023-09-12T16:32:44.366Z,27.2
2023-09-12T16:35:10.459Z,27.1
2023-09-12T16:37:36.559Z,27.1
2023-09-12T16:40:02.650Z,27.1
2023-09-12T16:42:28.736Z,27.1
2023-09-12T16:44:54.845Z,27.1
2023-09-12T16:47:20.945Z,27.1
2023-09-12T16:49:47.033Z,27.1
2023-09-12T16:52:13.116Z,27.1
2023-09-12T16:54:39.235Z,27.1
2023-09-12T16:57:05.305Z,27.1
2023-09-12T16:59:30.425Z,27.1
2023-09-12T17:01:56.511Z,27
2023-09-12T17:04:22.610Z,27
2023-09-12T17:06:48.691Z,27
2023-09-12T17:09:14.796Z,26.9
2023-09-12T17:11:40.902Z,26.9
2023-09-12T17:14:06.991Z,26.8
2023-09-12T17:16:32.107Z,26.7
2023-09-12T17:18:58.184Z,26.7
2023-09-12T17:21:24.300Z,26.6
2023-09-12T17:23:50.425Z,26.5
2023-09-12T17:26:16.477Z,26.5
2023-09-12T17:28:42.565Z,26.4
2023-09-12T17:31:08.664Z,26.4
2023-09-12T17:33:34.772Z,26.4
2023-09-12T17:36:00.850Z,26.4
2023-09-12T17:38:26.949Z,26.3
2023-09-12T17:40:53.053Z,26.3
2023-09-12T17:43:19.129Z,26.3
2023-09-12T17:45:45.233Z,26.3
2023-09-12T17:48:10.365Z,26.3
2023-09-12T17:50:36.434Z,26.2
2023-09-12T17:53:02.541Z,26.2
2023-09-12T17:55:28.627Z,26.1
2023-09-12T17:57:54.728Z,26
2023-09-12T18:00:20.826Z,25.9
2023-09-12T18:02:46.907Z,25.8
2023-09-12T18:05:13.097Z,25.7
2023-09-12T18:07:39.107Z,25.6
2023-09-12T18:10:05.197Z,25.5
2023-09-12T18:12:31.307Z,25.4
2023-09-12T18:14:57.399Z,25.3
2023-09-12T18:17:23.476Z,25.2
2023-09-12T18:19:48.584Z,25.2
2023-09-12T18:22:14.739Z,25.1
2023-09-12T18:24:40.773Z,25.1
2023-09-12T18:27:06.869Z,25
2023-09-12T18:29:32.970Z,24.9
2023-09-12T18:31:59.096Z,24.8
2023-09-12T18:34:25.140Z,24.8
2023-09-12T18:36:51.304Z,24.7
2023-09-12T18:39:17.349Z,24.6
2023-09-12T18:41:43.457Z,24.5
2023-09-12T18:44:09.557Z,24.4
2023-09-12T18:46:35.634Z,24.3
2023-09-12T18:49:01.765Z,24.2
2023-09-12T18:51:26.900Z,24.1
2023-09-12T18:53:52.926Z,24
2023-09-12T18:56:19.048Z,23.9
2023-09-12T18:58:45.132Z,23.8
2023-09-12T19:01:11.213Z,23.7
2023-09-12T19:03:37.304Z,23.5
2023-09-12T19:06:03.403Z,23.5
2023-09-12T19:08:29.538Z,23.4
2023-09-12T19:10:55.591Z,23.3
2023-09-12T19:13:21.697Z,23.2
2023-09-12T19:15:47.788Z,23.2
2023-09-12T19:18:13.928Z,23.1
2023-09-12T19:20:39.974Z,23
2023-09-12T19:23:05.109Z,22.9
2023-09-12T19:25:31.195Z,22.9
2023-09-12T19:27:57.305Z,22.8
2023-09-12T19:30:23.381Z,22.7
2023-09-12T19:32:49.471Z,22.7
2023-09-12T19:35:15.575Z,22.6
2023-09-12T19:37:41.672Z,22.6
2023-09-12T19:40:07.763Z,22.5
2023-09-12T19:42:33.857Z,22.5
2023-09-12T19:44:59.935Z,22.4
2023-09-12T19:47:26.063Z,22.3
2023-09-12T19:49:52.129Z,22.3
2023-09-12T19:52:18.220Z,22.2
2023-09-12T19:54:43.350Z,22.2
2023-09-12T19:57:09.434Z,22.2
2023-09-12T19:59:35.523Z,22.2
2023-09-12T20:02:01.614Z,22.2
2023-09-12T20:04:27.722Z,22.2
2023-09-12T20:06:53.813Z,22.1
2023-09-12T20:09:20.051Z,22.2
2023-09-12T20:11:45.989Z,22.2
2023-09-12T20:14:12.113Z,22.2
2023-09-12T20:16:38.196Z,22.2
2023-09-12T20:19:04.290Z,22.2
2023-09-12T20:21:30.375Z,22.2
2023-09-12T20:23:56.490Z,22.2
2023-09-12T20:26:21.610Z,22.2
2023-09-12T20:28:47.674Z,22.2
2023-09-12T20:31:13.792Z,22.2
2023-09-12T20:33:39.886Z,22.2
2023-09-12T20:36:05.993Z,22.2
2023-09-12T20:38:32.069Z,22.1
2023-09-12T20:40:58.174Z,22.1
2023-09-12T20:43:24.257Z,22.1
2023-09-12T20:45:50.368Z,22.1
2023-09-12T20:48:16.486Z,22.1
2023-09-12T20:50:42.607Z,22
2023-09-12T20:53:08.634Z,22
2023-09-12T20:55:34.814Z,22
2023-09-12T20:57:59.851Z,22
2023-09-12T21:00:25.948Z,21.9
2023-09-12T21:02:52.069Z,21.9
2023-09-12T21:05:18.146Z,21.8
2023-09-12T21:07:44.223Z,21.8
2023-09-12T21:10:10.328Z,21.7
2023-09-12T21:12:36.402Z,21.7
2023-09-12T21:15:02.511Z,21.6
2023-09-12T21:17:28.600Z,21.6
2023-09-12T21:19:54.704Z,21.5
2023-09-12T21:22:20.813Z,21.4
2023-09-12T21:24:46.891Z,21.3
2023-09-12T21:27:12.980Z,21.3
2023-09-12T21:29:38.222Z,21.2
2023-09-12T21:32:04.295Z,21.2
2023-09-12T21:34:30.273Z,21.1
2023-09-12T21:36:56.382Z,21.1
2023-09-12T21:39:22.466Z,21
2023-09-12T21:41:48.571Z,20.9
2023-09-12T21:44:14.659Z,20.9
2023-09-12T21:46:40.750Z,20.8
2023-09-12T21:49:06.855Z,20.8
2023-09-12T21:51:32.943Z,20.7
2023-09-12T21:53:59.046Z,20.6
2023-09-12T21:56:25.127Z,20.6
2023-09-12T21:58:51.304Z,20.6
2023-09-12T22:01:16.344Z,20.5
2023-09-12T22:03:42.442Z,20.5
2023-09-12T22:06:08.532Z,20.4
2023-09-12T22:08:34.622Z,20.4
2023-09-12T22:11:00.703Z,20.3
2023-09-12T22:13:26.908Z,20.3
2023-09-12T22:15:52.909Z,20.2
2023-09-12T22:18:19.000Z,20.2
2023-09-12T22:20:45.103Z,20.1
2023-09-12T22:23:11.189Z,20.1
2023-09-12T22:25:37.282Z,20.1
2023-09-12T22:28:03.364Z,20
2023-09-12T22:30:29.476Z,20
2023-09-12T22:32:54.581Z,20
2023-09-12T22:35:20.684Z,19.9
2023-09-12T22:37:46.777Z,19.9
2023-09-12T22:40:12.868Z,19.9
2023-09-12T22:42:38.951Z,19.9
2023-09-12T22:45:05.058Z,19.8
2023-09-12T22:47:31.173Z,19.8
2023-09-12T22:49:57.256Z,19.8
2023-09-12T22:52:23.332Z,19.8
2023-09-12T22:54:49.436Z,19.7
2023-09-12T22:57:15.535Z,19.7
2023-09-12T22:59:41.647Z,19.7
2023-09-12T23:02:07.732Z,19.7
2023-09-12T23:04:32.832Z,19.7
2023-09-12T23:06:58.923Z,19.6
2023-09-12T23:09:24.994Z,19.6
2023-09-12T23:11:51.108Z,19.6
2023-09-12T23:14:17.207Z,19.6
2023-09-12T23:16:43.291Z,19.6
2023-09-12T23:19:09.380Z,19.6
2023-09-12T23:21:35.488Z,19.6
2023-09-12T23:24:01.565Z,19.5
2023-09-12T23:26:27.672Z,19.6
2023-09-12T23:28:53.780Z,19.5
2023-09-12T23:31:19.868Z,19.6
2023-09-12T23:33:45.963Z,19.6
2023-09-12T23:36:11.068Z,19.6
2023-09-12T23:38:37.166Z,19.6
2023-09-12T23:41:03.260Z,19.6
2023-09-12T23:43:29.359Z,19.6
2023-09-12T23:45:55.444Z,19.6
2023-09-12T23:48:21.535Z,19.6
2023-09-12T23:50:47.640Z,19.7
2023-09-12T23:53:13.743Z,19.7
2023-09-12T23:55:39.846Z,19.7
2023-09-12T23:58:05.914Z,19.7
